sensor_id;sensor_type;location;lat;lon;timestamp;P1;durP1;ratioP1;P2;durP2;ratioP2
53022;SDS011;38913;44.338;11.206;2023-03-17T00:01:43;3.85;;;2.03;;
53022;SDS011;38913;44.338;11.206;2023-03-17T00:04:12;4.55;;;2.72;;
53022;SDS011;38913;44.338;11.206;2023-03-17T00:06:37;4.13;;;2.80;;
53022;SDS011;38913;44.338;11.206;2023-03-17T00:09:03;3.95;;;2.15;;
53022;SDS011;38913;44.338;11.206;2023-03-17T00:11:31;6.47;;;2.65;;
53022;SDS011;38913;44.338;11.206;2023-03-17T00:13:56;3.20;;;2.20;;
53022;SDS011;38913;44.338;11.206;2023-03-17T00:16:22;7.22;;;2.20;;
53022;SDS011;38913;44.338;11.206;2023-03-17T00:18:49;3.35;;;2.10;;
53022;SDS011;38913;44.338;11.206;2023-03-17T00:21:15;3.97;;;2.40;;
53022;SDS011;38913;44.338;11.206;2023-03-17T00:23:42;4.35;;;2.25;;
53022;SDS011;38913;44.338;11.206;2023-03-17T00:26:09;4.13;;;2.67;;
53022;SDS011;38913;44.338;11.206;2023-03-17T00:28:36;2.47;;;2.15;;
53022;SDS011;38913;44.338;11.206;2023-03-17T00:31:01;4.77;;;2.13;;
53022;SDS011;38913;44.338;11.206;2023-03-17T00:33:30;3.75;;;1.88;;
53022;SDS011;38913;44.338;11.206;2023-03-17T00:35:58;3.28;;;2.05;;
53022;SDS011;38913;44.338;11.206;2023-03-17T00:38:25;4.38;;;2.13;;
53022;SDS011;38913;44.338;11.206;2023-03-17T00:40:50;3.85;;;2.50;;
53022;SDS011;38913;44.338;11.206;2023-03-17T00:43:16;5.53;;;3.00;;
53022;SDS011;38913;44.338;11.206;2023-03-17T00:45:41;2.75;;;1.75;;
53022;SDS011;38913;44.338;11.206;2023-03-17T00:48:14;3.97;;;2.10;;
53022;SDS011;38913;44.338;11.206;2023-03-17T00:50:40;2.65;;;1.98;;
53022;SDS011;38913;44.338;11.206;2023-03-17T00:53:08;3.17;;;2.10;;
53022;SDS011;38913;44.338;11.206;2023-03-17T00:55:34;3.10;;;2.20;;
53022;SDS011;38913;44.338;11.206;2023-03-17T00:58:00;3.10;;;2.42;;
53022;SDS011;38913;44.338;11.206;2023-03-17T01:00:26;3.47;;;2.80;;
53022;SDS011;38913;44.338;11.206;2023-03-17T01:02:53;4.78;;;2.63;;
53022;SDS011;38913;44.338;11.206;2023-03-17T01:05:19;4.45;;;2.60;;
53022;SDS011;38913;44.338;11.206;2023-03-17T01:07:46;4.63;;;2.08;;
53022;SDS011;38913;44.338;11.206;2023-03-17T01:10:16;3.90;;;2.05;;
53022;SDS011;38913;44.338;11.206;2023-03-17T01:12:43;5.30;;;1.90;;
53022;SDS011;38913;44.338;11.206;2023-03-17T01:15:09;5.50;;;2.85;;
53022;SDS011;38913;44.338;11.206;2023-03-17T01:17:35;5.65;;;2.60;;
53022;SDS011;38913;44.338;11.206;2023-03-17T01:20:02;3.67;;;2.20;;
53022;SDS011;38913;44.338;11.206;2023-03-17T01:22:29;3.50;;;2.05;;
53022;SDS011;38913;44.338;11.206;2023-03-17T01:24:54;5.13;;;2.13;;
53022;SDS011;38913;44.338;11.206;2023-03-17T01:27:20;3.15;;;1.90;;
53022;SDS011;38913;44.338;11.206;2023-03-17T01:29:45;4.93;;;1.97;;
53022;SDS011;38913;44.338;11.206;2023-03-17T01:32:11;2.57;;;1.97;;
53022;SDS011;38913;44.338;11.206;2023-03-17T01:34:36;2.33;;;2.03;;
53022;SDS011;38913;44.338;11.206;2023-03-17T01:37:02;4.32;;;2.30;;
53022;SDS011;38913;44.338;11.206;2023-03-17T01:39:28;2.58;;;2.00;;
53022;SDS011;38913;44.338;11.206;2023-03-17T01:41:53;3.15;;;1.75;;
53022;SDS011;38913;44.338;11.206;2023-03-17T01:44:24;4.72;;;1.70;;
53022;SDS011;38913;44.338;11.206;2023-03-17T01:46:49;3.47;;;1.70;;
53022;SDS011;38913;44.338;11.206;2023-03-17T01:49:17;1.83;;;1.48;;
53022;SDS011;38913;44.338;11.206;2023-03-17T01:51:48;3.70;;;1.60;;
53022;SDS011;38913;44.338;11.206;2023-03-17T01:54:29;3.60;;;2.10;;
53022;SDS011;38913;44.338;11.206;2023-03-17T01:56:57;3.72;;;2.35;;
53022;SDS011;38913;44.338;11.206;2023-03-17T01:59:25;4.50;;;2.03;;
53022;SDS011;38913;44.338;11.206;2023-03-17T02:01:53;3.10;;;2.15;;
53022;SDS011;38913;44.338;11.206;2023-03-17T02:04:21;2.35;;;1.98;;
53022;SDS011;38913;44.338;11.206;2023-03-17T02:06:48;4.85;;;2.10;;
53022;SDS011;38913;44.338;11.206;2023-03-17T02:09:14;4.55;;;2.28;;
53022;SDS011;38913;44.338;11.206;2023-03-17T02:11:39;4.38;;;2.03;;
53022;SDS011;38913;44.338;11.206;2023-03-17T02:14:06;3.60;;;2.33;;
53022;SDS011;38913;44.338;11.206;2023-03-17T02:16:31;3.37;;;1.93;;
53022;SDS011;38913;44.338;11.206;2023-03-17T02:18:59;3.97;;;1.98;;
53022;SDS011;38913;44.338;11.206;2023-03-17T02:21:41;4.50;;;2.05;;
53022;SDS011;38913;44.338;11.206;2023-03-17T02:24:08;3.42;;;1.45;;
53022;SDS011;38913;44.338;11.206;2023-03-17T02:26:36;3.47;;;2.03;;
53022;SDS011;38913;44.338;11.206;2023-03-17T02:29:02;2.25;;;1.90;;
53022;SDS011;38913;44.338;11.206;2023-03-17T02:31:29;8.25;;;2.10;;
53022;SDS011;38913;44.338;11.206;2023-03-17T02:33:55;3.97;;;2.00;;
53022;SDS011;38913;44.338;11.206;2023-03-17T02:36:20;5.05;;;2.83;;
53022;SDS011;38913;44.338;11.206;2023-03-17T02:38:45;5.03;;;2.72;;
53022;SDS011;38913;44.338;11.206;2023-03-17T02:41:11;4.07;;;1.90;;
53022;SDS011;38913;44.338;11.206;2023-03-17T02:43:36;3.38;;;2.33;;
53022;SDS011;38913;44.338;11.206;2023-03-17T02:46:02;4.63;;;2.03;;
53022;SDS011;38913;44.338;11.206;2023-03-17T02:48:27;3.30;;;2.05;;
53022;SDS011;38913;44.338;11.206;2023-03-17T02:50:53;3.55;;;2.05;;
53022;SDS011;38913;44.338;11.206;2023-03-17T02:53:18;3.30;;;1.87;;
53022;SDS011;38913;44.338;11.206;2023-03-17T02:55:43;3.85;;;1.90;;
53022;SDS011;38913;44.338;11.206;2023-03-17T02:58:09;2.30;;;1.70;;
53022;SDS011;38913;44.338;11.206;2023-03-17T03:00:34;4.60;;;1.80;;
53022;SDS011;38913;44.338;11.206;2023-03-17T03:02:59;2.28;;;1.50;;
53022;SDS011;38913;44.338;11.206;2023-03-17T03:05:25;2.95;;;1.80;;
53022;SDS011;38913;44.338;11.206;2023-03-17T03:07:51;5.93;;;2.17;;
53022;SDS011;38913;44.338;11.206;2023-03-17T03:10:16;3.90;;;2.45;;
53022;SDS011;38913;44.338;11.206;2023-03-17T03:12:42;3.65;;;2.10;;
53022;SDS011;38913;44.338;11.206;2023-03-17T03:15:07;2.73;;;1.80;;
53022;SDS011;38913;44.338;11.206;2023-03-17T03:17:33;2.65;;;1.77;;
53022;SDS011;38913;44.338;11.206;2023-03-17T03:19:59;3.10;;;1.70;;
53022;SDS011;38913;44.338;11.206;2023-03-17T03:22:24;2.07;;;1.50;;
53022;SDS011;38913;44.338;11.206;2023-03-17T03:24:49;2.17;;;1.52;;
53022;SDS011;38913;44.338;11.206;2023-03-17T03:27:15;4.15;;;1.70;;
53022;SDS011;38913;44.338;11.206;2023-03-17T03:29:41;2.47;;;1.70;;
53022;SDS011;38913;44.338;11.206;2023-03-17T03:32:06;3.63;;;1.58;;
53022;SDS011;38913;44.338;11.206;2023-03-17T03:34:32;4.72;;;1.75;;
53022;SDS011;38913;44.338;11.206;2023-03-17T03:36:57;1.93;;;1.37;;
53022;SDS011;38913;44.338;11.206;2023-03-17T03:39:22;2.00;;;1.50;;
53022;SDS011;38913;44.338;11.206;2023-03-17T03:41:47;4.05;;;1.55;;
53022;SDS011;38913;44.338;11.206;2023-03-17T03:44:13;2.97;;;1.88;;
53022;SDS011;38913;44.338;11.206;2023-03-17T03:46:38;3.58;;;2.15;;
53022;SDS011;38913;44.338;11.206;2023-03-17T03:49:03;2.80;;;1.97;;
53022;SDS011;38913;44.338;11.206;2023-03-17T03:51:29;4.53;;;1.95;;
53022;SDS011;38913;44.338;11.206;2023-03-17T03:53:54;3.17;;;2.03;;
53022;SDS011;38913;44.338;11.206;2023-03-17T03:56:19;4.30;;;2.00;;
53022;SDS011;38913;44.338;11.206;2023-03-17T03:58:45;2.95;;;1.50;;
53022;SDS011;38913;44.338;11.206;2023-03-17T04:01:11;2.40;;;1.67;;
53022;SDS011;38913;44.338;11.206;2023-03-17T04:03:36;6.28;;;2.92;;
53022;SDS011;38913;44.338;11.206;2023-03-17T04:06:02;3.97;;;1.85;;
53022;SDS011;38913;44.338;11.206;2023-03-17T04:08:27;2.70;;;1.58;;
53022;SDS011;38913;44.338;11.206;2023-03-17T04:10:53;2.50;;;1.60;;
53022;SDS011;38913;44.338;11.206;2023-03-17T04:13:18;2.17;;;1.58;;
53022;SDS011;38913;44.338;11.206;2023-03-17T04:15:43;3.65;;;1.60;;
53022;SDS011;38913;44.338;11.206;2023-03-17T04:18:09;2.03;;;1.58;;
53022;SDS011;38913;44.338;11.206;2023-03-17T04:20:34;2.47;;;1.45;;
53022;SDS011;38913;44.338;11.206;2023-03-17T04:23:00;3.08;;;1.83;;
53022;SDS011;38913;44.338;11.206;2023-03-17T04:25:25;3.10;;;1.70;;
53022;SDS011;38913;44.338;11.206;2023-03-17T04:27:51;4.47;;;1.70;;
53022;SDS011;38913;44.338;11.206;2023-03-17T04:30:16;2.65;;;1.60;;
53022;SDS011;38913;44.338;11.206;2023-03-17T04:32:42;2.83;;;1.50;;
53022;SDS011;38913;44.338;11.206;2023-03-17T04:35:12;4.72;;;1.83;;
53022;SDS011;38913;44.338;11.206;2023-03-17T04:37:37;2.65;;;1.70;;
53022;SDS011;38913;44.338;11.206;2023-03-17T04:40:03;2.20;;;1.40;;
53022;SDS011;38913;44.338;11.206;2023-03-17T04:42:29;3.03;;;1.90;;
53022;SDS011;38913;44.338;11.206;2023-03-17T04:44:54;6.13;;;2.92;;
53022;SDS011;38913;44.338;11.206;2023-03-17T04:47:20;4.88;;;2.20;;
53022;SDS011;38913;44.338;11.206;2023-03-17T04:49:45;7.28;;;3.72;;
53022;SDS011;38913;44.338;11.206;2023-03-17T04:52:10;4.28;;;2.22;;
53022;SDS011;38913;44.338;11.206;2023-03-17T04:54:36;2.55;;;1.88;;
53022;SDS011;38913;44.338;11.206;2023-03-17T04:57:02;4.18;;;2.33;;
53022;SDS011;38913;44.338;11.206;2023-03-17T04:59:27;4.32;;;2.25;;
53022;SDS011;38913;44.338;11.206;2023-03-17T05:01:52;3.23;;;2.10;;
53022;SDS011;38913;44.338;11.206;2023-03-17T05:04:17;2.75;;;1.88;;
53022;SDS011;38913;44.338;11.206;2023-03-17T05:06:43;2.17;;;1.70;;
53022;SDS011;38913;44.338;11.206;2023-03-17T05:09:08;2.73;;;1.60;;
53022;SDS011;38913;44.338;11.206;2023-03-17T05:11:33;2.70;;;1.50;;
53022;SDS011;38913;44.338;11.206;2023-03-17T05:13:59;2.13;;;1.52;;
53022;SDS011;38913;44.338;11.206;2023-03-17T05:16:24;3.60;;;1.77;;
53022;SDS011;38913;44.338;11.206;2023-03-17T05:18:50;3.33;;;1.58;;
53022;SDS011;38913;44.338;11.206;2023-03-17T05:21:15;2.80;;;1.98;;
53022;SDS011;38913;44.338;11.206;2023-03-17T05:23:41;4.03;;;1.90;;
53022;SDS011;38913;44.338;11.206;2023-03-17T05:26:07;6.35;;;2.30;;
53022;SDS011;38913;44.338;11.206;2023-03-17T05:28:32;3.45;;;2.00;;
53022;SDS011;38913;44.338;11.206;2023-03-17T05:30:57;3.95;;;2.65;;
53022;SDS011;38913;44.338;11.206;2023-03-17T05:33:23;3.78;;;1.90;;
53022;SDS011;38913;44.338;11.206;2023-03-17T05:35:48;7.05;;;2.80;;
53022;SDS011;38913;44.338;11.206;2023-03-17T05:38:14;5.30;;;1.80;;
53022;SDS011;38913;44.338;11.206;2023-03-17T05:40:40;3.45;;;2.10;;
53022;SDS011;38913;44.338;11.206;2023-03-17T05:43:05;2.70;;;1.90;;
53022;SDS011;38913;44.338;11.206;2023-03-17T05:45:31;2.30;;;1.60;;
53022;SDS011;38913;44.338;11.206;2023-03-17T05:47:57;2.33;;;1.80;;
53022;SDS011;38913;44.338;11.206;2023-03-17T05:50:23;5.22;;;2.78;;
53022;SDS011;38913;44.338;11.206;2023-03-17T05:52:48;3.65;;;2.03;;
53022;SDS011;38913;44.338;11.206;2023-03-17T05:55:15;3.53;;;1.67;;
53022;SDS011;38913;44.338;11.206;2023-03-17T05:57:41;7.35;;;1.90;;
53022;SDS011;38913;44.338;11.206;2023-03-17T06:00:07;3.30;;;2.22;;
53022;SDS011;38913;44.338;11.206;2023-03-17T06:02:32;4.90;;;1.80;;
53022;SDS011;38913;44.338;11.206;2023-03-17T06:04:59;2.85;;;1.67;;
53022;SDS011;38913;44.338;11.206;2023-03-17T06:07:24;3.30;;;1.80;;
53022;SDS011;38913;44.338;11.206;2023-03-17T06:09:50;3.28;;;2.15;;
53022;SDS011;38913;44.338;11.206;2023-03-17T06:12:15;4.33;;;1.90;;
53022;SDS011;38913;44.338;11.206;2023-03-17T06:14:40;3.17;;;2.30;;
53022;SDS011;38913;44.338;11.206;2023-03-17T06:17:06;3.20;;;2.10;;
53022;SDS011;38913;44.338;11.206;2023-03-17T06:19:31;5.95;;;2.60;;
53022;SDS011;38913;44.338;11.206;2023-03-17T06:21:56;4.20;;;2.30;;
53022;SDS011;38913;44.338;11.206;2023-03-17T06:24:21;3.10;;;1.80;;
53022;SDS011;38913;44.338;11.206;2023-03-17T06:26:47;4.87;;;2.03;;
53022;SDS011;38913;44.338;11.206;2023-03-17T06:29:12;4.43;;;2.10;;
53022;SDS011;38913;44.338;11.206;2023-03-17T06:31:38;3.47;;;2.00;;
53022;SDS011;38913;44.338;11.206;2023-03-17T06:34:04;2.53;;;2.13;;
53022;SDS011;38913;44.338;11.206;2023-03-17T06:36:30;2.15;;;1.80;;
53022;SDS011;38913;44.338;11.206;2023-03-17T06:38:56;2.85;;;1.70;;
53022;SDS011;38913;44.338;11.206;2023-03-17T06:41:22;2.97;;;2.00;;
53022;SDS011;38913;44.338;11.206;2023-03-17T06:43:47;3.85;;;2.70;;
53022;SDS011;38913;44.338;11.206;2023-03-17T06:46:12;3.73;;;2.30;;
53022;SDS011;38913;44.338;11.206;2023-03-17T06:48:37;4.80;;;2.90;;
53022;SDS011;38913;44.338;11.206;2023-03-17T06:51:03;5.07;;;2.70;;
53022;SDS011;38913;44.338;11.206;2023-03-17T06:53:28;4.30;;;3.00;;
53022;SDS011;38913;44.338;11.206;2023-03-17T06:55:53;5.57;;;2.73;;
53022;SDS011;38913;44.338;11.206;2023-03-17T06:58:20;3.22;;;2.50;;
53022;SDS011;38913;44.338;11.206;2023-03-17T07:00:45;3.28;;;2.67;;
53022;SDS011;38913;44.338;11.206;2023-03-17T07:03:13;3.30;;;2.17;;
53022;SDS011;38913;44.338;11.206;2023-03-17T07:05:38;4.00;;;2.13;;
53022;SDS011;38913;44.338;11.206;2023-03-17T07:08:04;3.35;;;2.20;;
53022;SDS011;38913;44.338;11.206;2023-03-17T07:10:29;3.38;;;2.00;;
53022;SDS011;38913;44.338;11.206;2023-03-17T07:12:55;3.35;;;2.25;;
53022;SDS011;38913;44.338;11.206;2023-03-17T07:15:20;3.20;;;2.08;;
53022;SDS011;38913;44.338;11.206;2023-03-17T07:17:46;3.70;;;2.17;;
53022;SDS011;38913;44.338;11.206;2023-03-17T07:20:12;5.75;;;2.20;;
53022;SDS011;38913;44.338;11.206;2023-03-17T07:22:38;4.38;;;2.17;;
53022;SDS011;38913;44.338;11.206;2023-03-17T07:25:03;4.00;;;2.40;;
53022;SDS011;38913;44.338;11.206;2023-03-17T07:27:30;3.85;;;2.28;;
53022;SDS011;38913;44.338;11.206;2023-03-17T07:29:55;2.80;;;2.00;;
53022;SDS011;38913;44.338;11.206;2023-03-17T07:32:21;3.28;;;2.00;;
53022;SDS011;38913;44.338;11.206;2023-03-17T07:34:46;3.45;;;2.17;;
53022;SDS011;38913;44.338;11.206;2023-03-17T07:37:12;4.25;;;2.67;;
53022;SDS011;38913;44.338;11.206;2023-03-17T07:39:37;3.28;;;2.45;;
53022;SDS011;38913;44.338;11.206;2023-03-17T07:42:03;2.63;;;1.95;;
53022;SDS011;38913;44.338;11.206;2023-03-17T07:44:29;3.58;;;2.30;;
53022;SDS011;38913;44.338;11.206;2023-03-17T07:46:55;3.78;;;2.47;;
53022;SDS011;38913;44.338;11.206;2023-03-17T07:49:20;2.75;;;2.08;;
53022;SDS011;38913;44.338;11.206;2023-03-17T07:51:46;3.22;;;2.20;;
53022;SDS011;38913;44.338;11.206;2023-03-17T07:54:12;5.30;;;2.22;;
53022;SDS011;38913;44.338;11.206;2023-03-17T07:56:37;4.35;;;2.17;;
53022;SDS011;38913;44.338;11.206;2023-03-17T07:59:03;3.70;;;2.40;;
53022;SDS011;38913;44.338;11.206;2023-03-17T08:01:28;3.97;;;2.28;;
53022;SDS011;38913;44.338;11.206;2023-03-17T08:03:54;3.40;;;2.38;;
53022;SDS011;38913;44.338;11.206;2023-03-17T08:06:20;2.85;;;1.90;;
53022;SDS011;38913;44.338;11.206;2023-03-17T08:08:46;2.65;;;2.00;;
53022;SDS011;38913;44.338;11.206;2023-03-17T08:11:11;3.27;;;1.87;;
53022;SDS011;38913;44.338;11.206;2023-03-17T08:13:37;2.80;;;1.80;;
53022;SDS011;38913;44.338;11.206;2023-03-17T08:16:02;2.85;;;1.90;;
53022;SDS011;38913;44.338;11.206;2023-03-17T08:18:28;2.40;;;2.10;;
53022;SDS011;38913;44.338;11.206;2023-03-17T08:20:53;2.80;;;1.77;;
53022;SDS011;38913;44.338;11.206;2023-03-17T08:23:19;1.88;;;1.65;;
53022;SDS011;38913;44.338;11.206;2023-03-17T08:25:44;2.38;;;1.77;;
53022;SDS011;38913;44.338;11.206;2023-03-17T08:28:10;2.13;;;1.55;;
53022;SDS011;38913;44.338;11.206;2023-03-17T08:30:36;3.10;;;1.73;;
53022;SDS011;38913;44.338;11.206;2023-03-17T08:33:02;2.35;;;1.45;;
53022;SDS011;38913;44.338;11.206;2023-03-17T08:35:28;2.95;;;1.70;;
53022;SDS011;38913;44.338;11.206;2023-03-17T08:37:53;2.50;;;1.67;;
53022;SDS011;38913;44.338;11.206;2023-03-17T08:40:18;2.60;;;1.50;;
53022;SDS011;38913;44.338;11.206;2023-03-17T08:42:45;4.38;;;1.90;;
53022;SDS011;38913;44.338;11.206;2023-03-17T08:45:10;4.43;;;1.88;;
53022;SDS011;38913;44.338;11.206;2023-03-17T08:47:36;3.50;;;1.80;;
53022;SDS011;38913;44.338;11.206;2023-03-17T08:50:03;3.78;;;1.60;;
53022;SDS011;38913;44.338;11.206;2023-03-17T08:52:29;3.70;;;1.42;;
53022;SDS011;38913;44.338;11.206;2023-03-17T08:54:54;2.28;;;1.60;;
53022;SDS011;38913;44.338;11.206;2023-03-17T08:57:20;2.30;;;1.33;;
53022;SDS011;38913;44.338;11.206;2023-03-17T08:59:46;3.47;;;1.50;;
53022;SDS011;38913;44.338;11.206;2023-03-17T09:02:12;2.13;;;1.20;;
53022;SDS011;38913;44.338;11.206;2023-03-17T09:04:38;2.80;;;1.50;;
53022;SDS011;38913;44.338;11.206;2023-03-17T09:07:11;1.95;;;1.20;;
53022;SDS011;38913;44.338;11.206;2023-03-17T09:09:44;2.58;;;1.45;;
53022;SDS011;38913;44.338;11.206;2023-03-17T09:12:12;2.08;;;1.48;;
53022;SDS011;38913;44.338;11.206;2023-03-17T09:14:38;2.58;;;1.40;;
53022;SDS011;38913;44.338;11.206;2023-03-17T09:17:04;1.60;;;1.23;;
53022;SDS011;38913;44.338;11.206;2023-03-17T09:19:30;1.90;;;1.70;;
53022;SDS011;38913;44.338;11.206;2023-03-17T09:21:55;1.92;;;1.38;;
53022;SDS011;38913;44.338;11.206;2023-03-17T09:24:21;2.95;;;1.40;;
53022;SDS011;38913;44.338;11.206;2023-03-17T09:26:46;1.20;;;0.97;;
53022;SDS011;38913;44.338;11.206;2023-03-17T09:29:11;2.70;;;1.33;;
53022;SDS011;38913;44.338;11.206;2023-03-17T09:31:37;2.47;;;1.40;;
53022;SDS011;38913;44.338;11.206;2023-03-17T09:34:03;3.13;;;1.13;;
53022;SDS011;38913;44.338;11.206;2023-03-17T09:36:29;3.63;;;2.13;;
53022;SDS011;38913;44.338;11.206;2023-03-17T09:38:56;1.85;;;1.23;;
53022;SDS011;38913;44.338;11.206;2023-03-17T09:46:52;2.53;;;0.90;;
53022;SDS011;38913;44.338;11.206;2023-03-17T09:49:21;2.03;;;0.80;;
53022;SDS011;38913;44.338;11.206;2023-03-17T09:51:49;1.20;;;0.93;;
53022;SDS011;38913;44.338;11.206;2023-03-17T09:54:34;1.15;;;0.60;;
53022;SDS011;38913;44.338;11.206;2023-03-17T09:59:40;1.55;;;0.68;;
53022;SDS011;38913;44.338;11.206;2023-03-17T10:02:15;1.42;;;0.80;;
53022;SDS011;38913;44.338;11.206;2023-03-17T10:04:41;1.92;;;0.80;;
53022;SDS011;38913;44.338;11.206;2023-03-17T10:07:08;1.85;;;1.00;;
53022;SDS011;38913;44.338;11.206;2023-03-17T10:09:37;1.00;;;0.70;;
53022;SDS011;38913;44.338;11.206;2023-03-17T10:12:10;2.13;;;0.90;;
53022;SDS011;38913;44.338;11.206;2023-03-17T10:14:42;1.00;;;0.85;;
53022;SDS011;38913;44.338;11.206;2023-03-17T10:17:17;1.33;;;0.88;;
53022;SDS011;38913;44.338;11.206;2023-03-17T10:19:56;1.58;;;0.90;;
53022;SDS011;38913;44.338;11.206;2023-03-17T10:24:53;1.60;;;0.95;;
53022;SDS011;38913;44.338;11.206;2023-03-17T10:27:21;1.42;;;0.70;;
53022;SDS011;38913;44.338;11.206;2023-03-17T10:29:47;1.27;;;1.00;;
53022;SDS011;38913;44.338;11.206;2023-03-17T10:32:13;1.48;;;0.85;;
53022;SDS011;38913;44.338;11.206;2023-03-17T10:34:38;1.10;;;0.85;;
53022;SDS011;38913;44.338;11.206;2023-03-17T10:37:08;2.03;;;0.80;;
53022;SDS011;38913;44.338;11.206;2023-03-17T10:39:57;2.60;;;0.98;;
53022;SDS011;38913;44.338;11.206;2023-03-17T10:44:57;1.00;;;0.80;;
53022;SDS011;38913;44.338;11.206;2023-03-17T10:49:58;2.67;;;0.90;;
53022;SDS011;38913;44.338;11.206;2023-03-17T10:52:28;1.83;;;1.00;;
53022;SDS011;38913;44.338;11.206;2023-03-17T10:54:54;2.15;;;0.95;;
53022;SDS011;38913;44.338;11.206;2023-03-17T10:57:20;1.42;;;1.00;;
53022;SDS011;38913;44.338;11.206;2023-03-17T10:59:50;0.80;;;0.80;;
53022;SDS011;38913;44.338;11.206;2023-03-17T11:02:24;1.90;;;1.20;;
53022;SDS011;38913;44.338;11.206;2023-03-17T11:04:53;2.35;;;1.20;;
53022;SDS011;38913;44.338;11.206;2023-03-17T11:07:35;3.83;;;1.10;;
53022;SDS011;38913;44.338;11.206;2023-03-17T11:10:02;1.55;;;1.10;;
53022;SDS011;38913;44.338;11.206;2023-03-17T11:12:29;2.33;;;1.33;;
53022;SDS011;38913;44.338;11.206;2023-03-17T11:15:02;1.77;;;1.00;;
53022;SDS011;38913;44.338;11.206;2023-03-17T11:20:01;1.00;;;0.90;;
53022;SDS011;38913;44.338;11.206;2023-03-17T11:23:13;1.80;;;1.40;;
53022;SDS011;38913;44.338;11.206;2023-03-17T11:25:18;1.80;;;1.13;;
53022;SDS011;38913;44.338;11.206;2023-03-17T11:30:38;3.28;;;1.30;;
53022;SDS011;38913;44.338;11.206;2023-03-17T11:38:08;2.55;;;1.30;;
53022;SDS011;38913;44.338;11.206;2023-03-17T11:43:42;1.90;;;1.45;;
53022;SDS011;38913;44.338;11.206;2023-03-17T11:46:18;1.67;;;1.58;;
53022;SDS011;38913;44.338;11.206;2023-03-17T11:51:34;3.75;;;1.45;;
53022;SDS011;38913;44.338;11.206;2023-03-17T11:54:10;2.28;;;1.42;;
53022;SDS011;38913;44.338;11.206;2023-03-17T11:59:26;3.53;;;1.60;;
53022;SDS011;38913;44.338;11.206;2023-03-17T12:04:41;3.22;;;1.27;;
53022;SDS011;38913;44.338;11.206;2023-03-17T12:07:13;2.97;;;1.42;;
53022;SDS011;38913;44.338;11.206;2023-03-17T12:09:41;1.80;;;1.40;;
53022;SDS011;38913;44.338;11.206;2023-03-17T12:12:08;3.58;;;1.70;;
53022;SDS011;38913;44.338;11.206;2023-03-17T12:14:37;2.50;;;1.40;;
53022;SDS011;38913;44.338;11.206;2023-03-17T12:19:52;2.25;;;1.33;;
53022;SDS011;38913;44.338;11.206;2023-03-17T12:22:31;2.67;;;1.50;;
53022;SDS011;38913;44.338;11.206;2023-03-17T12:27:27;2.35;;;1.40;;
53022;SDS011;38913;44.338;11.206;2023-03-17T12:29:57;2.58;;;1.50;;
53022;SDS011;38913;44.338;11.206;2023-03-17T12:32:25;4.22;;;2.08;;
53022;SDS011;38913;44.338;11.206;2023-03-17T12:34:54;2.58;;;1.65;;
53022;SDS011;38913;44.338;11.206;2023-03-17T12:37:20;2.63;;;1.40;;
53022;SDS011;38913;44.338;11.206;2023-03-17T12:50:26;3.28;;;1.90;;
53022;SDS011;38913;44.338;11.206;2023-03-17T12:55:48;2.92;;;1.63;;
53022;SDS011;38913;44.338;11.206;2023-03-17T13:01:22;2.00;;;1.60;;
53022;SDS011;38913;44.338;11.206;2023-03-17T13:06:36;2.88;;;2.00;;
53022;SDS011;38913;44.338;11.206;2023-03-17T13:09:25;2.72;;;1.70;;
53022;SDS011;38913;44.338;11.206;2023-03-17T13:11:52;3.47;;;1.88;;
53022;SDS011;38913;44.338;11.206;2023-03-17T13:18:09;2.83;;;2.10;;
53022;SDS011;38913;44.338;11.206;2023-03-17T13:24:49;2.30;;;1.67;;
53022;SDS011;38913;44.338;11.206;2023-03-17T13:29:56;3.22;;;2.28;;
53022;SDS011;38913;44.338;11.206;2023-03-17T13:34:51;2.90;;;2.10;;
53022;SDS011;38913;44.338;11.206;2023-03-17T13:45:13;2.90;;;2.10;;
53022;SDS011;38913;44.338;11.206;2023-03-17T13:47:40;3.63;;;2.42;;
53022;SDS011;38913;44.338;11.206;2023-03-17T13:50:07;3.58;;;2.58;;
53022;SDS011;38913;44.338;11.206;2023-03-17T13:57:41;5.95;;;2.42;;
53022;SDS011;38913;44.338;11.206;2023-03-17T14:02:45;2.88;;;2.22;;
53022;SDS011;38913;44.338;11.206;2023-03-17T14:05:46;2.72;;;2.10;;
53022;SDS011;38913;44.338;11.206;2023-03-17T14:08:05;3.63;;;2.30;;
53022;SDS011;38913;44.338;11.206;2023-03-17T14:10:35;4.78;;;2.35;;
53022;SDS011;38913;44.338;11.206;2023-03-17T14:18:22;5.18;;;2.50;;
53022;SDS011;38913;44.338;11.206;2023-03-17T14:20:55;4.18;;;2.30;;
53022;SDS011;38913;44.338;11.206;2023-03-17T14:23:21;5.43;;;2.45;;
53022;SDS011;38913;44.338;11.206;2023-03-17T14:25:47;2.78;;;2.10;;
53022;SDS011;38913;44.338;11.206;2023-03-17T14:28:15;3.10;;;2.63;;
53022;SDS011;38913;44.338;11.206;2023-03-17T14:30:47;4.30;;;2.20;;
53022;SDS011;38913;44.338;11.206;2023-03-17T14:33:16;4.25;;;2.63;;
53022;SDS011;38913;44.338;11.206;2023-03-17T14:35:45;5.45;;;2.70;;
53022;SDS011;38913;44.338;11.206;2023-03-17T14:38:35;3.38;;;2.42;;
53022;SDS011;38913;44.338;11.206;2023-03-17T14:41:00;4.05;;;2.53;;
53022;SDS011;38913;44.338;11.206;2023-03-17T14:43:25;4.15;;;2.63;;
53022;SDS011;38913;44.338;11.206;2023-03-17T14:45:51;3.57;;;2.60;;
53022;SDS011;38913;44.338;11.206;2023-03-17T14:48:25;3.63;;;2.53;;
53022;SDS011;38913;44.338;11.206;2023-03-17T14:50:54;4.00;;;2.53;;
53022;SDS011;38913;44.338;11.206;2023-03-17T14:53:20;5.32;;;2.33;;
53022;SDS011;38913;44.338;11.206;2023-03-17T14:55:47;3.22;;;2.33;;
53022;SDS011;38913;44.338;11.206;2023-03-17T14:58:33;4.38;;;2.63;;
53022;SDS011;38913;44.338;11.206;2023-03-17T15:01:04;4.10;;;2.67;;
53022;SDS011;38913;44.338;11.206;2023-03-17T15:03:30;4.15;;;2.20;;
53022;SDS011;38913;44.338;11.206;2023-03-17T15:06:04;3.15;;;2.38;;
53022;SDS011;38913;44.338;11.206;2023-03-17T15:10:57;3.60;;;2.08;;
53022;SDS011;38913;44.338;11.206;2023-03-17T15:13:23;3.42;;;2.33;;
53022;SDS011;38913;44.338;11.206;2023-03-17T15:15:48;3.60;;;2.33;;
53022;SDS011;38913;44.338;11.206;2023-03-17T15:18:14;3.90;;;2.65;;
53022;SDS011;38913;44.338;11.206;2023-03-17T15:20:42;5.53;;;2.30;;
53022;SDS011;38913;44.338;11.206;2023-03-17T15:23:18;3.30;;;2.35;;
53022;SDS011;38913;44.338;11.206;2023-03-17T15:28:12;3.50;;;2.40;;
53022;SDS011;38913;44.338;11.206;2023-03-17T15:30:41;4.85;;;2.20;;
53022;SDS011;38913;44.338;11.206;2023-03-17T15:33:29;5.32;;;2.10;;
53022;SDS011;38913;44.338;11.206;2023-03-17T15:35:56;4.00;;;2.05;;
53022;SDS011;38913;44.338;11.206;2023-03-17T15:38:23;3.28;;;2.03;;
53022;SDS011;38913;44.338;11.206;2023-03-17T15:40:49;4.30;;;2.45;;
53022;SDS011;38913;44.338;11.206;2023-03-17T15:43:15;3.13;;;2.30;;
53022;SDS011;38913;44.338;11.206;2023-03-17T15:45:40;3.08;;;2.30;;
53022;SDS011;38913;44.338;11.206;2023-03-17T15:48:17;2.97;;;2.30;;
53022;SDS011;38913;44.338;11.206;2023-03-17T15:50:44;4.15;;;2.33;;
53022;SDS011;38913;44.338;11.206;2023-03-17T15:53:11;3.75;;;2.28;;
53022;SDS011;38913;44.338;11.206;2023-03-17T15:55:37;4.10;;;2.15;;
53022;SDS011;38913;44.338;11.206;2023-03-17T15:58:03;3.90;;;2.40;;
53022;SDS011;38913;44.338;11.206;2023-03-17T16:00:28;6.40;;;2.37;;
53022;SDS011;38913;44.338;11.206;2023-03-17T16:02:54;4.53;;;2.70;;
53022;SDS011;38913;44.338;11.206;2023-03-17T16:05:22;4.28;;;2.55;;
53022;SDS011;38913;44.338;11.206;2023-03-17T16:07:48;4.85;;;2.63;;
53022;SDS011;38913;44.338;11.206;2023-03-17T16:10:18;3.33;;;2.40;;
53022;SDS011;38913;44.338;11.206;2023-03-17T16:12:44;4.22;;;2.63;;
53022;SDS011;38913;44.338;11.206;2023-03-17T16:15:19;6.20;;;2.63;;